Time;durP1;ratioP1;P1;durP2;ratioP2;P2;SDS_P1;SDS_P2;PMS_P1;PMS_P2;Temp;Humidity;BMP_temperature;BMP_pressure;BME280_temperature;BME280_humidity;BME280_pressure;Samples;Min_cycle;Max_cycle;Signal;HPM_P1;HPM_P2
2022/10/08 00:01:21;;;;;;;;;;;15.50;92.00;;;;;;5062815;28;19991;-77
2022/10/08 00:03:50;;;;;;;;;;;15.50;92.00;;;;;;5064650;28;19979;-79
2022/10/08 00:06:17;;;;;;;;;;;15.50;92.00;;;;;;5063206;28;20485;-78
2022/10/08 00:08:48;;;;;;;;;;;15.50;92.10;;;;;;5064316;28;19987;-77
2022/10/08 00:11:17;;;;;;;;;;;15.50;92.10;;;;;;5062939;28;19980;-79
2022/10/08 00:13:46;;;;;;;;;;;15.50;92.20;;;;;;5062937;28;19986;-79
2022/10/08 00:16:14;;;;;;;;;;;15.50;92.20;;;;;;5062110;28;19995;-77
2022/10/08 00:18:41;;;;;;;;;;;15.50;92.20;;;;;;5064573;28;20767;-79
2022/10/08 00:21:10;;;;;;;;;;;15.50;92.30;;;;;;5062117;28;19979;-77
2022/10/08 00:23:36;;;;;;;;;;;15.50;92.30;;;;;;5062629;28;20054;-78
2022/10/08 00:26:06;;;;;;;;;;;15.50;92.30;;;;;;5060992;28;19992;-78
2022/10/08 00:28:35;;;;;;;;;;;15.50;92.30;;;;;;5062807;28;20074;-77
2022/10/08 00:31:06;;;;;;;;;;;15.50;92.40;;;;;;5062504;28;19995;-77
2022/10/08 00:33:33;;;;;;;;;;;15.40;92.40;;;;;;5063669;28;19979;-77
2022/10/08 00:36:00;;;;;;;;;;;15.50;92.40;;;;;;5062671;28;19979;-76
2022/10/08 00:38:27;;;;;;;;;;;15.40;92.50;;;;;;5063313;28;19980;-78
2022/10/08 00:40:53;;;;;;;;;;;15.40;92.40;;;;;;5062601;28;19979;-77
2022/10/08 00:46:24;;;;;;;;;;;15.40;92.40;;;;;;5100036;27;19999;-70
2022/10/08 00:48:52;;;;;;;;;;;15.40;92.40;;;;;;5091135;28;19991;-71
2022/10/08 00:51:18;;;;;;;;;;;15.50;92.50;;;;;;5075160;28;19975;-71
2022/10/08 00:53:45;;;;;;;;;;;15.40;92.50;;;;;;5077327;28;19991;-71
2022/10/08 00:56:12;;;;;;;;;;;15.40;92.40;;;;;;5079106;28;20014;-71
2022/10/08 00:58:40;;;;;;;;;;;15.40;92.50;;;;;;5077604;28;19998;-70
2022/10/08 01:01:07;;;;;;;;;;;15.40;92.50;;;;;;5078803;28;20021;-71
2022/10/08 01:03:35;;;;;;;;;;;15.40;92.50;;;;;;5081479;28;19980;-71
2022/10/08 01:06:06;;;;;;;;;;;15.40;92.50;;;;;;5079628;28;19999;-70
2022/10/08 01:08:34;;;;;;;;;;;15.40;92.50;;;;;;5080605;28;20003;-70
2022/10/08 01:11:05;;;;;;;;;;;15.40;92.50;;;;;;5079837;28;20061;-71
2022/10/08 01:13:38;;;;;;;;;;;15.40;92.60;;;;;;5080205;28;19980;-69
2022/10/08 01:16:10;;;;;;;;;;;15.40;92.50;;;;;;5077863;28;20006;-68
2022/10/08 01:18:41;;;;;;;;;;;15.40;92.60;;;;;;5080170;28;20084;-69
2022/10/08 01:21:11;;;;;;;;;;;15.40;92.60;;;;;;5077606;28;19986;-69
2022/10/08 01:23:47;;;;;;;;;;;15.40;92.70;;;;;;5079876;28;19980;-69
2022/10/08 01:26:30;;;;;;;;;;;15.40;92.70;;;;;;5076122;28;20002;-68
2022/10/08 01:29:02;;;;;;;;;;;15.40;92.80;;;;;;5078826;28;20458;-69
2022/10/08 01:31:31;;;;;;;;;;;15.40;92.80;;;;;;5076792;28;19991;-69
2022/10/08 01:33:59;;;;;;;;;;;15.40;92.80;;;;;;5079746;28;19975;-68
2022/10/08 01:36:27;;;;;;;;;;;15.40;92.80;;;;;;5078072;28;19987;-69
2022/10/08 01:38:55;;;;;;;;;;;15.40;92.80;;;;;;5079874;28;19991;-69
2022/10/08 01:41:24;;;;;;;;;;;15.40;92.80;;;;;;5079416;28;19975;-68
2022/10/08 01:43:54;;;;;;;;;;;15.40;92.90;;;;;;5076337;28;19979;-69
2022/10/08 01:46:26;;;;;;;;;;;15.40;92.90;;;;;;5089953;28;20007;-68
2022/10/08 01:48:53;;;;;;;;;;;15.40;92.80;;;;;;5090051;28;21289;-68
2022/10/08 01:51:23;;;;;;;;;;;15.40;92.90;;;;;;5074788;28;19994;-69
2022/10/08 01:53:50;;;;;;;;;;;15.40;92.90;;;;;;5082212;28;20070;-68
2022/10/08 01:56:19;;;;;;;;;;;15.40;92.90;;;;;;5081859;28;19986;-68
2022/10/08 02:01:54;;;;;;;;;;;15.40;92.80;;;;;;5039741;28;20077;-68
2022/10/08 02:07:06;;;;;;;;;;;15.40;92.80;;;;;;5046893;28;20084;-68
2022/10/08 02:09:34;;;;;;;;;;;15.40;92.80;;;;;;5043351;28;19992;-69
2022/10/08 02:12:00;;;;;;;;;;;15.40;92.90;;;;;;5047932;28;19979;-68
2022/10/08 02:14:28;;;;;;;;;;;15.40;92.90;;;;;;5050493;28;20027;-68
2022/10/08 02:16:58;;;;;;;;;;;15.40;93.00;;;;;;5046359;28;19999;-69
2022/10/08 02:19:29;;;;;;;;;;;15.40;93.00;;;;;;5035586;28;20522;-69
2022/10/08 02:21:56;;;;;;;;;;;15.50;93.10;;;;;;5050399;28;20730;-71
2022/10/08 02:24:27;;;;;;;;;;;15.40;93.00;;;;;;5041556;28;19983;-70
2022/10/08 02:26:56;;;;;;;;;;;15.40;93.10;;;;;;5047007;28;20306;-71
2022/10/08 02:29:27;;;;;;;;;;;15.40;93.10;;;;;;5043949;28;20090;-70
2022/10/08 02:31:57;;;;;;;;;;;15.40;93.10;;;;;;5042826;28;20619;-68
2022/10/08 02:34:26;;;;;;;;;;;15.50;93.20;;;;;;5048702;28;19975;-68
2022/10/08 02:36:54;;;;;;;;;;;15.40;93.10;;;;;;5048637;28;19983;-69
2022/10/08 02:39:22;;;;;;;;;;;15.40;93.20;;;;;;5052095;28;19992;-68
2022/10/08 02:41:50;;;;;;;;;;;15.40;93.20;;;;;;5051664;28;19975;-68
2022/10/08 02:44:20;;;;;;;;;;;15.40;93.20;;;;;;5048956;28;19991;-69
2022/10/08 02:46:48;;;;;;;;;;;15.40;93.20;;;;;;5038151;28;20003;-69
2022/10/08 02:49:18;;;;;;;;;;;15.50;93.30;;;;;;5036646;28;19996;-69
2022/10/08 02:51:48;;;;;;;;;;;15.40;93.30;;;;;;5038543;28;20450;-68
2022/10/08 02:54:16;;;;;;;;;;;15.40;93.30;;;;;;5042983;28;20347;-69
2022/10/08 02:56:45;;;;;;;;;;;15.50;93.40;;;;;;5042873;28;20348;-69
2022/10/08 02:59:12;;;;;;;;;;;15.50;93.40;;;;;;5042808;28;19995;-69
2022/10/08 03:01:44;;;;;;;;;;;15.40;93.40;;;;;;5037192;28;20813;-68
2022/10/08 03:04:15;;;;;;;;;;;15.40;93.40;;;;;;5038079;28;20102;-69
2022/10/08 03:06:43;;;;;;;;;;;15.40;93.40;;;;;;5045020;28;19992;-69
2022/10/08 03:09:12;;;;;;;;;;;15.50;93.50;;;;;;5040657;28;19995;-69
2022/10/08 03:11:38;;;;;;;;;;;15.40;93.50;;;;;;5039927;28;20596;-68
2022/10/08 03:14:08;;;;;;;;;;;15.40;93.50;;;;;;5041227;28;19987;-69
2022/10/08 03:16:37;;;;;;;;;;;15.40;93.50;;;;;;5037786;28;20901;-68
2022/10/08 03:19:04;;;;;;;;;;;15.40;93.50;;;;;;5031551;28;20408;-68
2022/10/08 03:21:31;;;;;;;;;;;15.40;93.50;;;;;;5039448;28;19983;-69
2022/10/08 03:23:59;;;;;;;;;;;15.40;93.50;;;;;;5044292;28;19971;-69
2022/10/08 03:26:26;;;;;;;;;;;15.40;93.50;;;;;;5040090;28;19996;-69
2022/10/08 03:28:53;;;;;;;;;;;15.40;93.50;;;;;;5038236;28;20023;-68
2022/10/08 03:31:19;;;;;;;;;;;15.40;93.60;;;;;;5039866;28;19999;-68
2022/10/08 03:33:49;;;;;;;;;;;15.40;93.50;;;;;;5039131;28;19998;-69
2022/10/08 03:36:15;;;;;;;;;;;15.40;93.50;;;;;;5041081;28;20539;-69
2022/10/08 03:38:42;;;;;;;;;;;15.40;93.60;;;;;;5044150;28;20467;-69
2022/10/08 03:41:10;;;;;;;;;;;15.40;93.60;;;;;;5036868;28;19979;-69
2022/10/08 03:43:37;;;;;;;;;;;15.40;93.60;;;;;;5042535;28;20766;-69
2022/10/08 03:46:03;;;;;;;;;;;15.40;93.60;;;;;;5041618;28;20003;-68
2022/10/08 03:48:30;;;;;;;;;;;15.40;93.60;;;;;;5037852;28;19991;-69
2022/10/08 03:50:58;;;;;;;;;;;15.40;93.60;;;;;;5036460;28;19986;-68
2022/10/08 03:53:25;;;;;;;;;;;15.40;93.60;;;;;;5034772;28;19987;-68
2022/10/08 03:55:52;;;;;;;;;;;15.40;93.50;;;;;;5039029;28;19983;-68
2022/10/08 03:58:20;;;;;;;;;;;15.40;93.60;;;;;;5041607;28;19992;-69
2022/10/08 04:00:55;;;;;;;;;;;15.40;93.60;;;;;;5031139;28;20006;-68
2022/10/08 04:03:22;;;;;;;;;;;15.40;93.60;;;;;;5032177;28;19976;-69
2022/10/08 04:05:49;;;;;;;;;;;15.40;93.60;;;;;;5040841;28;20471;-69
2022/10/08 04:08:15;;;;;;;;;;;15.40;93.50;;;;;;5035617;28;19996;-69
2022/10/08 04:10:42;;;;;;;;;;;15.40;93.50;;;;;;5039973;28;19987;-69
2022/10/08 04:13:08;;;;;;;;;;;15.40;93.50;;;;;;5042751;28;19979;-69
2022/10/08 04:15:36;;;;;;;;;;;15.40;93.50;;;;;;5037614;28;19983;-69
2022/10/08 04:18:03;;;;;;;;;;;15.40;93.50;;;;;;5034482;28;20696;-68
2022/10/08 04:20:29;;;;;;;;;;;15.40;93.50;;;;;;5038327;28;20446;-69
2022/10/08 04:22:56;;;;;;;;;;;15.40;93.50;;;;;;5039296;28;20472;-68
2022/10/08 04:25:23;;;;;;;;;;;15.40;93.50;;;;;;5042468;28;20624;-68
2022/10/08 04:27:49;;;;;;;;;;;15.40;93.60;;;;;;5029769;28;19972;-69
2022/10/08 04:30:16;;;;;;;;;;;15.40;93.60;;;;;;5039547;28;21570;-69
2022/10/08 04:32:44;;;;;;;;;;;15.40;93.60;;;;;;5034699;28;20325;-68
2022/10/08 04:35:10;;;;;;;;;;;15.30;93.60;;;;;;5039495;28;19979;-68
2022/10/08 04:37:37;;;;;;;;;;;15.40;93.70;;;;;;5043079;28;19976;-69
2022/10/08 04:40:04;;;;;;;;;;;15.40;93.70;;;;;;5038811;28;20006;-69
2022/10/08 04:42:30;;;;;;;;;;;15.40;93.70;;;;;;5043779;28;20493;-69
2022/10/08 04:44:57;;;;;;;;;;;15.40;93.70;;;;;;5043281;28;20371;-69
2022/10/08 04:47:23;;;;;;;;;;;15.30;93.60;;;;;;5034185;28;20531;-68
2022/10/08 04:49:51;;;;;;;;;;;15.30;93.60;;;;;;5036175;28;20387;-69
2022/10/08 04:52:19;;;;;;;;;;;15.40;93.60;;;;;;5027729;28;20177;-69
2022/10/08 04:54:46;;;;;;;;;;;15.40;93.60;;;;;;5043859;28;19981;-69
2022/10/08 04:57:12;;;;;;;;;;;15.30;93.60;;;;;;5040720;28;20459;-69
2022/10/08 04:59:39;;;;;;;;;;;15.30;93.60;;;;;;5040532;28;19999;-69
2022/10/08 05:02:05;;;;;;;;;;;15.30;93.60;;;;;;5033451;28;20003;-68
2022/10/08 05:04:32;;;;;;;;;;;15.30;93.60;;;;;;5037326;28;19976;-68
2022/10/08 05:07:00;;;;;;;;;;;15.30;93.60;;;;;;5042844;28;19992;-69
2022/10/08 05:09:26;;;;;;;;;;;15.30;93.60;;;;;;5042798;28;19987;-68
2022/10/08 05:11:53;;;;;;;;;;;15.30;93.60;;;;;;5040786;28;19991;-68
2022/10/08 05:14:19;;;;;;;;;;;15.30;93.60;;;;;;5040730;28;19976;-69
2022/10/08 05:16:46;;;;;;;;;;;15.20;93.60;;;;;;5038918;28;20015;-69
2022/10/08 05:19:12;;;;;;;;;;;15.20;93.50;;;;;;5028561;28;20019;-68
2022/10/08 05:21:39;;;;;;;;;;;15.20;93.50;;;;;;5039001;28;19976;-69
2022/10/08 05:24:08;;;;;;;;;;;15.30;93.60;;;;;;5042700;28;20046;-69
2022/10/08 05:26:35;;;;;;;;;;;15.20;93.50;;;;;;5041289;28;20460;-68
2022/10/08 05:29:02;;;;;;;;;;;15.20;93.50;;;;;;5036278;28;20000;-68
2022/10/08 05:31:30;;;;;;;;;;;15.20;93.50;;;;;;5037063;28;19992;-68
2022/10/08 05:33:57;;;;;;;;;;;15.20;93.50;;;;;;5039359;28;19994;-68
2022/10/08 05:36:24;;;;;;;;;;;15.20;93.60;;;;;;5043468;28;20436;-69
2022/10/08 05:38:51;;;;;;;;;;;15.20;93.50;;;;;;5046693;28;19999;-68
2022/10/08 05:41:20;;;;;;;;;;;15.20;93.50;;;;;;5038566;28;19998;-69
2022/10/08 05:43:47;;;;;;;;;;;15.10;93.50;;;;;;5040967;28;19984;-69
2022/10/08 05:46:14;;;;;;;;;;;15.10;93.60;;;;;;5036493;28;20082;-68
2022/10/08 05:48:40;;;;;;;;;;;15.10;93.60;;;;;;5034941;28;20566;-69
2022/10/08 05:51:08;;;;;;;;;;;15.10;93.60;;;;;;5035078;28;19980;-69
2022/10/08 05:53:36;;;;;;;;;;;15.10;93.60;;;;;;5044319;28;20063;-68
2022/10/08 05:56:03;;;;;;;;;;;15.10;93.50;;;;;;5040535;28;20500;-68
2022/10/08 05:58:31;;;;;;;;;;;15.10;93.60;;;;;;5039166;28;20713;-68
2022/10/08 06:00:58;;;;;;;;;;;15.10;93.60;;;;;;5042852;28;19995;-69
2022/10/08 06:03:24;;;;;;;;;;;15.10;93.60;;;;;;5035258;28;20767;-69
2022/10/08 06:05:51;;;;;;;;;;;15.00;93.50;;;;;;5044046;28;20486;-69
2022/10/08 06:08:18;;;;;;;;;;;15.00;93.60;;;;;;5044008;28;19987;-69
2022/10/08 06:10:48;;;;;;;;;;;15.00;93.60;;;;;;5036582;28;20379;-68
2022/10/08 06:13:14;;;;;;;;;;;15.00;93.60;;;;;;5044692;28;19979;-68
2022/10/08 06:15:42;;;;;;;;;;;15.00;93.60;;;;;;5045296;28;20631;-69
2022/10/08 06:18:09;;;;;;;;;;;15.00;93.60;;;;;;5041996;28;20007;-68
2022/10/08 06:20:36;;;;;;;;;;;15.00;93.50;;;;;;5038950;28;19936;-70
2022/10/08 06:23:02;;;;;;;;;;;15.00;93.50;;;;;;5043848;28;20021;-70
2022/10/08 06:25:29;;;;;;;;;;;15.00;93.50;;;;;;5042120;28;19936;-70
2022/10/08 06:27:55;;;;;;;;;;;15.00;93.50;;;;;;5041161;28;19932;-70
2022/10/08 06:30:22;;;;;;;;;;;15.00;93.50;;;;;;5042933;28;19928;-71
2022/10/08 06:32:50;;;;;;;;;;;14.90;93.50;;;;;;5041202;28;19933;-69
2022/10/08 06:35:16;;;;;;;;;;;14.90;93.40;;;;;;5044669;28;20015;-68
2022/10/08 06:37:43;;;;;;;;;;;14.90;93.40;;;;;;5044202;28;19952;-68
2022/10/08 06:40:09;;;;;;;;;;;14.90;93.40;;;;;;5035520;28;20291;-68
2022/10/08 06:42:36;;;;;;;;;;;14.90;93.30;;;;;;5040915;28;19944;-69
2022/10/08 06:45:03;;;;;;;;;;;14.90;93.30;;;;;;5045337;28;19936;-68
2022/10/08 06:47:29;;;;;;;;;;;14.90;93.30;;;;;;5036929;28;19924;-69
2022/10/08 06:49:57;;;;;;;;;;;14.90;93.30;;;;;;5038698;28;19928;-68
2022/10/08 06:52:24;;;;;;;;;;;14.90;93.30;;;;;;5035230;28;19929;-68
2022/10/08 06:54:50;;;;;;;;;;;14.90;93.20;;;;;;5041387;28;19933;-69
2022/10/08 06:57:17;;;;;;;;;;;14.90;93.20;;;;;;5036724;28;19940;-68
2022/10/08 06:59:43;;;;;;;;;;;14.90;93.20;;;;;;5040683;28;20298;-69
2022/10/08 07:02:10;;;;;;;;;;;14.90;93.20;;;;;;5036062;28;20313;-68
2022/10/08 07:04:37;;;;;;;;;;;14.90;93.20;;;;;;5044767;28;20327;-68
2022/10/08 07:07:05;;;;;;;;;;;14.90;93.20;;;;;;5042546;28;19929;-68
2022/10/08 07:09:31;;;;;;;;;;;14.90;93.20;;;;;;5043245;28;19924;-69
2022/10/08 07:11:58;;;;;;;;;;;14.90;93.10;;;;;;5040119;28;19936;-69
2022/10/08 07:14:24;;;;;;;;;;;14.90;93.20;;;;;;5041010;28;20258;-69
2022/10/08 07:16:51;;;;;;;;;;;14.90;93.20;;;;;;5040055;28;19929;-69
2022/10/08 07:19:17;;;;;;;;;;;14.90;93.10;;;;;;5033490;28;19926;-69
2022/10/08 07:21:44;;;;;;;;;;;14.90;93.10;;;;;;5042858;28;19928;-69
2022/10/08 07:24:12;;;;;;;;;;;14.90;93.10;;;;;;5041134;28;19928;-68
2022/10/08 07:26:38;;;;;;;;;;;14.90;93.10;;;;;;5039804;28;19928;-68
2022/10/08 07:29:07;;;;;;;;;;;14.80;93.10;;;;;;5037053;28;19936;-68
2022/10/08 07:31:34;;;;;;;;;;;14.90;93.20;;;;;;5040547;28;19951;-69
2022/10/08 07:34:02;;;;;;;;;;;14.80;93.10;;;;;;5040726;28;19928;-69
2022/10/08 07:36:29;;;;;;;;;;;14.80;93.10;;;;;;5043020;28;20029;-69
2022/10/08 07:38:56;;;;;;;;;;;14.90;93.10;;;;;;5043722;28;19928;-68
2022/10/08 07:41:25;;;;;;;;;;;14.90;93.10;;;;;;5038680;28;20658;-68
2022/10/08 07:43:52;;;;;;;;;;;14.90;93.10;;;;;;5042757;28;20628;-68
2022/10/08 07:46:19;;;;;;;;;;;14.90;93.10;;;;;;5042416;28;20021;-69
2022/10/08 07:48:45;;;;;;;;;;;14.80;93.10;;;;;;5033611;28;19929;-68
2022/10/08 07:51:13;;;;;;;;;;;14.80;93.10;;;;;;5035635;28;20402;-68
2022/10/08 07:53:40;;;;;;;;;;;14.80;93.10;;;;;;5041192;28;20560;-68
2022/10/08 07:56:07;;;;;;;;;;;14.80;93.10;;;;;;5043238;28;20421;-68
2022/10/08 07:58:35;;;;;;;;;;;14.80;93.10;;;;;;5040207;28;19932;-68
2022/10/08 08:01:03;;;;;;;;;;;14.80;93.10;;;;;;5030619;28;19940;-68
2022/10/08 08:03:30;;;;;;;;;;;14.80;93.20;;;;;;5033165;28;19969;-68
2022/10/08 08:06:00;;;;;;;;;;;14.80;93.10;;;;;;5040764;28;19929;-68
2022/10/08 08:08:26;;;;;;;;;;;14.80;93.30;;;;;;5037630;28;20352;-69
2022/10/08 08:10:55;;;;;;;;;;;14.80;93.40;;;;;;5039681;28;19928;-68
2022/10/08 08:13:22;;;;;;;;;;;14.80;93.10;;;;;;5041408;28;19924;-69
2022/10/08 08:15:56;;;;;;;;;;;14.80;93.10;;;;;;5040424;28;19931;-68
2022/10/08 08:18:23;;;;;;;;;;;14.80;93.10;;;;;;5034206;28;19929;-68
2022/10/08 08:20:56;;;;;;;;;;;14.80;93.10;;;;;;5035589;28;20026;-68
2022/10/08 08:23:23;;;;;;;;;;;14.80;93.10;;;;;;5041437;28;19929;-69
2022/10/08 08:25:49;;;;;;;;;;;14.80;93.00;;;;;;5038787;28;19944;-68
2022/10/08 08:28:16;;;;;;;;;;;14.80;93.00;;;;;;5041104;28;19948;-68
2022/10/08 08:30:42;;;;;;;;;;;14.80;93.00;;;;;;5035026;28;19929;-69
2022/10/08 08:33:10;;;;;;;;;;;14.80;92.90;;;;;;5034867;28;19929;-68
2022/10/08 08:35:37;;;;;;;;;;;14.80;92.90;;;;;;5041495;28;19929;-68
2022/10/08 08:38:03;;;;;;;;;;;14.80;92.90;;;;;;5037836;28;20735;-69
2022/10/08 08:40:30;;;;;;;;;;;14.80;92.80;;;;;;5038657;28;20286;-69
2022/10/08 08:42:56;;;;;;;;;;;14.90;92.80;;;;;;5041274;28;19928;-68
2022/10/08 08:45:25;;;;;;;;;;;14.80;92.80;;;;;;5039797;28;19929;-69
2022/10/08 08:47:56;;;;;;;;;;;14.90;92.70;;;;;;5033955;28;19951;-68
2022/10/08 08:50:26;;;;;;;;;;;14.90;92.70;;;;;;5032440;28;20348;-69
2022/10/08 08:52:53;;;;;;;;;;;14.90;92.60;;;;;;5027236;28;19939;-69
2022/10/08 08:55:21;;;;;;;;;;;14.90;92.60;;;;;;5042278;28;19932;-69
2022/10/08 08:57:53;;;;;;;;;;;14.90;92.50;;;;;;5038869;28;19929;-68
2022/10/08 09:00:21;;;;;;;;;;;14.90;92.50;;;;;;5032655;28;19929;-69
2022/10/08 09:02:51;;;;;;;;;;;14.90;92.50;;;;;;5038215;28;19936;-69
2022/10/08 09:05:18;;;;;;;;;;;14.90;92.40;;;;;;5041169;28;19936;-69
2022/10/08 09:07:48;;;;;;;;;;;15.00;92.40;;;;;;5045249;28;19929;-69
2022/10/08 09:10:18;;;;;;;;;;;14.90;92.30;;;;;;5035115;28;19937;-69
2022/10/08 09:12:45;;;;;;;;;;;14.90;92.30;;;;;;5044933;28;19943;-69
2022/10/08 09:15:17;;;;;;;;;;;14.90;92.20;;;;;;5037910;28;19936;-69
2022/10/08 09:17:44;;;;;;;;;;;15.00;92.20;;;;;;5040861;28;19928;-69
2022/10/08 09:20:13;;;;;;;;;;;15.00;92.20;;;;;;5037122;28;19945;-69
2022/10/08 09:22:40;;;;;;;;;;;15.00;92.10;;;;;;5039759;28;20329;-68
2022/10/08 09:25:13;;;;;;;;;;;15.00;91.80;;;;;;5040103;28;19928;-68
2022/10/08 09:27:43;;;;;;;;;;;15.10;91.80;;;;;;5034295;28;19933;-69
2022/10/08 09:30:26;;;;;;;;;;;15.20;91.70;;;;;;5044110;28;20423;-69
2022/10/08 09:32:52;;;;;;;;;;;15.20;91.60;;;;;;5040079;28;20432;-69
2022/10/08 09:35:19;;;;;;;;;;;15.30;91.20;;;;;;5045123;28;19943;-69
2022/10/08 09:37:47;;;;;;;;;;;15.30;91.00;;;;;;5043964;28;19936;-69
2022/10/08 09:40:20;;;;;;;;;;;15.40;90.80;;;;;;5039099;28;19924;-69
2022/10/08 09:43:01;;;;;;;;;;;15.50;90.60;;;;;;5043129;28;19936;-69
2022/10/08 09:45:31;;;;;;;;;;;15.50;90.60;;;;;;5041348;28;19929;-68
2022/10/08 09:48:12;;;;;;;;;;;15.60;90.10;;;;;;5039195;28;19924;-69
2022/10/08 09:50:46;;;;;;;;;;;15.60;88.70;;;;;;5042111;28;19940;-69
2022/10/08 09:53:12;;;;;;;;;;;15.70;89.10;;;;;;5044501;28;20389;-68
2022/10/08 09:55:40;;;;;;;;;;;15.80;89.60;;;;;;5046161;28;19959;-68
2022/10/08 09:58:16;;;;;;;;;;;15.80;88.10;;;;;;5043644;28;20022;-69
2022/10/08 10:00:43;;;;;;;;;;;15.80;88.90;;;;;;5041763;28;19936;-69
2022/10/08 10:03:16;;;;;;;;;;;15.90;87.00;;;;;;5039195;28;19943;-69
2022/10/08 10:05:43;;;;;;;;;;;15.90;87.00;;;;;;5044619;28;19968;-69
2022/10/08 10:08:34;;;;;;;;;;;16.00;87.40;;;;;;5045912;28;19929;-69
2022/10/08 10:11:02;;;;;;;;;;;16.00;86.50;;;;;;5042870;28;20720;-69
2022/10/08 10:13:31;;;;;;;;;;;16.00;87.20;;;;;;5046077;28;19936;-69
2022/10/08 10:15:59;;;;;;;;;;;16.10;87.40;;;;;;5044837;28;20328;-69
2022/10/08 10:18:31;;;;;;;;;;;16.10;87.40;;;;;;5033086;28;19929;-68
2022/10/08 10:20:59;;;;;;;;;;;16.20;85.20;;;;;;5035161;28;19929;-69
2022/10/08 10:23:29;;;;;;;;;;;16.30;83.90;;;;;;5037630;28;20648;-69
2022/10/08 10:25:58;;;;;;;;;;;16.30;84.70;;;;;;5046445;28;19928;-69
2022/10/08 10:28:33;;;;;;;;;;;16.40;84.30;;;;;;5043790;28;20039;-69
2022/10/08 10:31:03;;;;;;;;;;;16.40;84.30;;;;;;5036679;28;20739;-69
2022/10/08 10:33:31;;;;;;;;;;;16.50;84.40;;;;;;5037984;28;19932;-69
2022/10/08 10:36:00;;;;;;;;;;;16.50;84.00;;;;;;5045016;28;19929;-69
2022/10/08 10:38:28;;;;;;;;;;;16.60;84.40;;;;;;5045296;28;20059;-69
2022/10/08 10:41:01;;;;;;;;;;;16.60;82.80;;;;;;5034834;28;19933;-69
2022/10/08 10:43:35;;;;;;;;;;;16.70;82.80;;;;;;5038502;28;19929;-69
2022/10/08 10:46:12;;;;;;;;;;;16.70;82.00;;;;;;5040157;28;19940;-69
2022/10/08 10:48:38;;;;;;;;;;;16.80;82.60;;;;;;5033230;28;19936;-69
2022/10/08 10:51:14;;;;;;;;;;;16.80;83.20;;;;;;5042276;28;19932;-69
2022/10/08 10:53:46;;;;;;;;;;;16.90;80.50;;;;;;5043979;28;19929;-69
2022/10/08 10:56:15;;;;;;;;;;;16.90;81.50;;;;;;5042173;28;19933;-69
2022/10/08 10:58:54;;;;;;;;;;;17.00;79.20;;;;;;5038000;28;19929;-69
2022/10/08 11:01:27;;;;;;;;;;;17.10;80.30;;;;;;5039338;28;19929;-69
2022/10/08 11:03:58;;;;;;;;;;;17.10;80.40;;;;;;5037299;28;19936;-70
2022/10/08 11:06:34;;;;;;;;;;;17.20;79.20;;;;;;5039138;28;19928;-69
2022/10/08 11:09:03;;;;;;;;;;;17.30;80.10;;;;;;5043822;28;19955;-69
2022/10/08 11:11:33;;;;;;;;;;;17.30;79.60;;;;;;5038313;28;20520;-69
2022/10/08 11:14:14;;;;;;;;;;;17.40;79.00;;;;;;5042629;28;19937;-69
2022/10/08 11:16:46;;;;;;;;;;;17.40;79.30;;;;;;5042176;28;19932;-69
2022/10/08 11:19:17;;;;;;;;;;;17.40;79.70;;;;;;5028446;28;19956;-69
2022/10/08 11:21:48;;;;;;;;;;;17.40;80.30;;;;;;5039179;28;19929;-69
2022/10/08 11:24:22;;;;;;;;;;;17.40;80.50;;;;;;5034300;28;20427;-69
2022/10/08 11:26:53;;;;;;;;;;;17.40;80.60;;;;;;5042742;28;19998;-69
2022/10/08 11:29:24;;;;;;;;;;;17.40;78.80;;;;;;5031550;28;19929;-69
2022/10/08 11:31:51;;;;;;;;;;;17.50;79.40;;;;;;5040776;28;19929;-69
2022/10/08 11:34:21;;;;;;;;;;;17.50;79.00;;;;;;5037324;28;19929;-69
2022/10/08 11:36:50;;;;;;;;;;;17.60;77.30;;;;;;5043667;28;20016;-69
2022/10/08 11:39:18;;;;;;;;;;;17.60;78.20;;;;;;5041707;28;19933;-69
2022/10/08 11:41:47;;;;;;;;;;;17.60;78.50;;;;;;5039937;28;19929;-69
2022/10/08 11:44:14;;;;;;;;;;;17.60;78.70;;;;;;5042420;28;19929;-69
2022/10/08 11:46:42;;;;;;;;;;;17.60;78.10;;;;;;5049033;28;19936;-70
2022/10/08 11:49:28;;;;;;;;;;;17.60;78.80;;;;;;5048778;28;19936;-69
2022/10/08 11:51:54;;;;;;;;;;;17.60;78.40;;;;;;5040463;28;19928;-70
2022/10/08 11:54:24;;;;;;;;;;;17.60;76.70;;;;;;5046703;28;20460;-70
2022/10/08 11:56:52;;;;;;;;;;;17.60;77.80;;;;;;5047198;28;20013;-70
2022/10/08 11:59:31;;;;;;;;;;;17.60;76.60;;;;;;5043491;28;19936;-69
2022/10/08 12:02:00;;;;;;;;;;;17.60;75.50;;;;;;5037039;28;20099;-70
2022/10/08 12:04:28;;;;;;;;;;;17.70;76.50;;;;;;5050159;28;19933;-70
2022/10/08 12:07:04;;;;;;;;;;;17.60;76.00;;;;;;5043838;28;19928;-69
2022/10/08 12:09:46;;;;;;;;;;;17.60;75.20;;;;;;5052873;28;19962;-69
2022/10/08 12:12:13;;;;;;;;;;;17.60;75.70;;;;;;5044718;28;19951;-69
2022/10/08 12:14:47;;;;;;;;;;;17.60;76.90;;;;;;5050954;28;19925;-71
2022/10/08 12:17:15;;;;;;;;;;;17.60;75.70;;;;;;5045769;28;20035;-69
2022/10/08 12:19:43;;;;;;;;;;;17.70;76.60;;;;;;5044119;28;19936;-69
2022/10/08 12:22:24;;;;;;;;;;;17.70;76.00;;;;;;5047541;28;19939;-69
2022/10/08 12:24:52;;;;;;;;;;;17.70;75.70;;;;;;5043588;28;19935;-69
2022/10/08 12:27:26;;;;;;;;;;;17.70;76.30;;;;;;5051285;28;19936;-69
2022/10/08 12:29:53;;;;;;;;;;;17.70;76.00;;;;;;5047724;28;19928;-69
2022/10/08 12:32:22;;;;;;;;;;;17.70;76.50;;;;;;5042396;28;19975;-70
2022/10/08 12:34:48;;;;;;;;;;;17.70;76.90;;;;;;5045950;28;19924;-70
2022/10/08 12:37:21;;;;;;;;;;;17.70;76.80;;;;;;5046367;28;19931;-69
2022/10/08 12:39:48;;;;;;;;;;;17.70;75.80;;;;;;5044149;28;19932;-70
2022/10/08 12:42:16;;;;;;;;;;;17.70;75.80;;;;;;5049466;28;19928;-69
2022/10/08 12:44:48;;;;;;;;;;;17.70;76.00;;;;;;5045914;28;19928;-69
2022/10/08 12:47:26;;;;;;;;;;;17.70;75.40;;;;;;5038310;28;19933;-69
2022/10/08 12:49:56;;;;;;;;;;;17.70;75.90;;;;;;5047088;28;20292;-69
2022/10/08 12:52:23;;;;;;;;;;;17.70;76.30;;;;;;5041886;28;20002;-69
2022/10/08 12:54:52;;;;;;;;;;;17.70;76.50;;;;;;5049979;28;19940;-69
2022/10/08 12:57:20;;;;;;;;;;;17.70;76.50;;;;;;5042307;28;19929;-69
2022/10/08 12:59:47;;;;;;;;;;;17.70;76.60;;;;;;5043011;28;20239;-69
2022/10/08 13:02:28;;;;;;;;;;;17.70;76.50;;;;;;5039306;28;20308;-69
2022/10/08 13:04:55;;;;;;;;;;;17.70;76.70;;;;;;5040730;28;19936;-70
2022/10/08 13:07:24;;;;;;;;;;;17.70;76.00;;;;;;5044355;28;19935;-69
2022/10/08 13:09:53;;;;;;;;;;;17.70;75.60;;;;;;5036413;28;19936;-70
2022/10/08 13:12:20;;;;;;;;;;;17.70;75.00;;;;;;5043560;28;19933;-69
2022/10/08 13:14:57;;;;;;;;;;;17.70;75.30;;;;;;5043908;28;19959;-69
2022/10/08 13:17:29;;;;;;;;;;;17.70;75.50;;;;;;5040944;28;19928;-69
2022/10/08 13:20:03;;;;;;;;;;;17.70;75.70;;;;;;5043831;28;19924;-69
2022/10/08 13:22:30;;;;;;;;;;;17.70;74.70;;;;;;5044778;28;19928;-69
2022/10/08 13:24:57;;;;;;;;;;;17.70;75.10;;;;;;5046460;28;19935;-69
2022/10/08 13:27:25;;;;;;;;;;;17.70;75.70;;;;;;5043145;28;19928;-69
2022/10/08 13:29:51;;;;;;;;;;;17.80;75.30;;;;;;5041815;28;19941;-69
2022/10/08 13:32:19;;;;;;;;;;;17.80;75.10;;;;;;5041666;28;19940;-69
2022/10/08 13:34:48;;;;;;;;;;;17.80;75.50;;;;;;5046096;28;19936;-70
2022/10/08 13:37:16;;;;;;;;;;;17.80;75.80;;;;;;5043521;28;20392;-69
2022/10/08 13:39:49;;;;;;;;;;;17.80;75.60;;;;;;5040853;28;19936;-69
2022/10/08 13:42:16;;;;;;;;;;;17.90;75.80;;;;;;5037921;28;19929;-69
2022/10/08 13:44:43;;;;;;;;;;;17.90;74.50;;;;;;5042892;28;19935;-69
2022/10/08 13:47:12;;;;;;;;;;;17.90;74.70;;;;;;5029859;28;19929;-69
2022/10/08 13:49:38;;;;;;;;;;;17.90;74.70;;;;;;5036142;28;19928;-69
2022/10/08 13:52:06;;;;;;;;;;;17.90;74.60;;;;;;5034857;28;19936;-69
2022/10/08 13:54:33;;;;;;;;;;;17.90;75.00;;;;;;5044567;28;19961;-69
2022/10/08 13:57:00;;;;;;;;;;;17.90;75.70;;;;;;5045107;28;19935;-69
2022/10/08 13:59:26;;;;;;;;;;;18.00;75.90;;;;;;5040075;28;19936;-69
2022/10/08 14:01:53;;;;;;;;;;;17.90;75.90;;;;;;5033379;28;19936;-69
2022/10/08 14:04:20;;;;;;;;;;;17.90;75.30;;;;;;5044804;28;20825;-69
2022/10/08 14:06:49;;;;;;;;;;;17.90;74.40;;;;;;5046376;28;19940;-69
2022/10/08 14:09:18;;;;;;;;;;;18.00;75.00;;;;;;5042226;28;19929;-69
2022/10/08 14:11:46;;;;;;;;;;;18.00;75.70;;;;;;5036562;28;19936;-69
2022/10/08 14:14:13;;;;;;;;;;;17.90;75.90;;;;;;5042231;28;19932;-69
2022/10/08 14:16:40;;;;;;;;;;;17.90;75.90;;;;;;5038088;28;20282;-69
2022/10/08 14:19:07;;;;;;;;;;;17.90;75.90;;;;;;5045033;28;20282;-70
2022/10/08 14:21:33;;;;;;;;;;;17.90;76.40;;;;;;5045984;28;20328;-70
2022/10/08 14:24:00;;;;;;;;;;;17.90;76.40;;;;;;5045085;28;19928;-69
2022/10/08 14:26:29;;;;;;;;;;;17.90;76.50;;;;;;5037869;28;19964;-70
2022/10/08 14:28:55;;;;;;;;;;;17.90;76.50;;;;;;5045240;28;19928;-69
2022/10/08 14:31:22;;;;;;;;;;;17.90;76.60;;;;;;5042265;28;20495;-69
2022/10/08 14:33:48;;;;;;;;;;;17.90;76.20;;;;;;5045382;28;19929;-69